createdAt,value
2023-05-11T00:02:40.370Z,4.67
2023-05-11T00:07:41.885Z,4.40
2023-05-11T00:12:43.294Z,5.07
2023-05-11T00:17:44.724Z,5.00
2023-05-11T00:22:46.136Z,4.50
2023-05-11T00:27:47.531Z,4.80
2023-05-11T00:32:49.013Z,4.57
2023-05-11T00:37:50.567Z,4.53
2023-05-11T00:42:51.949Z,4.40
2023-05-11T00:47:53.479Z,3.87
2023-05-11T00:52:54.952Z,4.30
2023-05-11T00:57:56.346Z,5.00
2023-05-11T01:02:57.801Z,5.03
2023-05-11T01:07:59.222Z,3.90
2023-05-11T01:13:00.615Z,4.23
2023-05-11T01:18:02.040Z,4.60
2023-05-11T01:23:03.487Z,3.20
2023-05-11T01:28:04.898Z,3.47
2023-05-11T01:33:06.352Z,4.37
2023-05-11T01:38:07.779Z,3.97
2023-05-11T01:43:09.185Z,4.00
2023-05-11T01:48:10.637Z,4.27
2023-05-11T01:53:12.048Z,4.70
2023-05-11T01:58:13.453Z,4.10
2023-05-11T02:03:14.953Z,3.83
2023-05-11T02:08:16.467Z,4.73
2023-05-11T02:13:17.866Z,4.00
2023-05-11T02:18:19.269Z,3.40
2023-05-11T02:23:20.668Z,4.00
2023-05-11T02:28:22.073Z,3.67
2023-05-11T02:33:23.473Z,4.27
2023-05-11T02:38:24.874Z,4.13
2023-05-11T02:43:26.270Z,3.87
2023-05-11T02:48:27.655Z,3.67
2023-05-11T02:53:29.372Z,4.20
2023-05-11T02:58:31.694Z,3.87
2023-05-11T03:03:33.178Z,4.10
2023-05-11T03:08:34.654Z,4.37
2023-05-11T03:13:36.042Z,4.20
2023-05-11T03:18:37.456Z,4.20
2023-05-11T03:23:38.857Z,3.63
2023-05-11T03:28:40.267Z,4.03
2023-05-11T03:33:41.658Z,3.60
2023-05-11T03:38:43.059Z,4.43
2023-05-11T03:43:44.460Z,5.10
2023-05-11T03:48:45.857Z,3.80
2023-05-11T03:53:47.899Z,3.70
2023-05-11T03:58:49.323Z,3.70
2023-05-11T04:03:50.838Z,4.27
2023-05-11T04:08:52.395Z,3.87
2023-05-11T04:13:53.796Z,4.80
2023-05-11T04:18:55.273Z,4.03
2023-05-11T04:23:56.672Z,3.73
2023-05-11T04:28:58.076Z,4.33
2023-05-11T04:33:59.474Z,4.80
2023-05-11T04:39:00.882Z,4.77
2023-05-11T04:44:02.294Z,4.10
2023-05-11T04:49:03.697Z,4.80
2023-05-11T04:54:05.174Z,4.47
2023-05-11T04:59:06.583Z,4.60
2023-05-11T05:04:08.021Z,4.80
2023-05-11T05:09:09.446Z,5.97
2023-05-11T05:14:10.832Z,4.53
2023-05-11T05:19:12.263Z,5.40
2023-05-11T05:24:13.670Z,5.17
2023-05-11T05:29:15.073Z,4.60
2023-05-11T05:34:16.819Z,5.03
2023-05-11T05:39:36.961Z,5.40
2023-05-11T05:44:38.365Z,5.60
2023-05-11T05:49:39.769Z,6.30
2023-05-11T05:54:41.174Z,5.20
2023-05-11T05:59:42.564Z,6.10
2023-05-11T06:04:43.968Z,6.23
2023-05-11T06:09:45.453Z,6.60
2023-05-11T06:14:46.873Z,6.67
2023-05-11T06:19:48.255Z,6.83
2023-05-11T06:24:49.666Z,5.67
2023-05-11T06:29:51.069Z,7.20
2023-05-11T06:34:52.482Z,6.60
2023-05-11T06:39:53.904Z,6.43
2023-05-11T06:44:55.320Z,6.70
2023-05-11T06:49:56.733Z,6.50
2023-05-11T06:54:58.127Z,7.20
2023-05-11T06:59:59.521Z,6.43
2023-05-11T07:05:00.955Z,5.83
2023-05-11T07:10:02.446Z,6.40
2023-05-11T07:15:03.849Z,6.20
2023-05-11T07:20:05.358Z,7.30
2023-05-11T07:25:06.788Z,6.53
2023-05-11T07:30:08.200Z,6.13
2023-05-11T07:35:09.606Z,5.77
2023-05-11T07:40:11.053Z,6.27
2023-05-11T07:45:12.590Z,5.70
2023-05-11T07:50:13.999Z,5.93
2023-05-11T07:55:16.661Z,5.80
2023-05-11T08:00:18.338Z,5.93
2023-05-11T08:05:20.105Z,5.47
2023-05-11T08:10:21.730Z,5.67
2023-05-11T08:15:23.124Z,5.30
2023-05-11T08:20:24.549Z,6.00
2023-05-11T08:25:26.028Z,5.73
2023-05-11T08:30:27.452Z,5.10
2023-05-11T08:35:28.901Z,6.03
2023-05-11T08:40:30.280Z,5.27
2023-05-11T08:45:31.734Z,6.40
2023-05-11T08:50:33.186Z,5.70
2023-05-11T08:55:34.596Z,5.67
2023-05-11T09:00:36.104Z,5.97
2023-05-11T09:05:37.530Z,5.83
2023-05-11T09:10:39.023Z,4.83
2023-05-11T09:15:40.432Z,5.63
2023-05-11T09:20:41.848Z,5.07
2023-05-11T09:25:43.246Z,5.60
2023-05-11T09:30:44.653Z,5.40
2023-05-11T09:35:46.073Z,5.60
2023-05-11T09:40:47.469Z,5.50
2023-05-11T09:45:48.848Z,5.13
2023-05-11T09:50:50.272Z,5.80
2023-05-11T09:55:51.703Z,5.90
2023-05-11T10:00:53.108Z,5.60
2023-05-11T10:05:54.499Z,5.00
2023-05-11T10:10:55.904Z,5.53
2023-05-11T10:15:57.351Z,5.33
2023-05-11T10:20:58.797Z,5.30
2023-05-11T10:26:00.181Z,5.80
2023-05-11T10:31:01.583Z,6.20
2023-05-11T10:36:02.970Z,4.87
2023-05-11T10:41:04.366Z,5.47
2023-05-11T10:46:05.804Z,5.77
2023-05-11T10:51:08.151Z,5.23
2023-05-11T10:56:09.551Z,5.43
2023-05-11T11:01:10.990Z,5.70
2023-05-11T11:06:12.617Z,6.47
2023-05-11T11:11:14.117Z,5.97
2023-05-11T11:16:16.702Z,5.80
2023-05-11T11:21:18.282Z,6.13
2023-05-11T11:26:19.705Z,6.10
2023-05-11T11:31:21.196Z,6.00
2023-05-11T11:36:22.744Z,5.83
2023-05-11T11:41:24.166Z,6.90
2023-05-11T11:46:25.598Z,7.13
2023-05-11T11:51:27.038Z,6.70
2023-05-11T11:56:28.416Z,7.93
2023-05-11T12:01:29.818Z,6.30
2023-05-11T12:06:31.199Z,6.83
2023-05-11T12:11:32.598Z,7.47
2023-05-11T12:16:34.027Z,7.07
2023-05-11T12:21:35.462Z,7.00
2023-05-11T12:26:36.882Z,9.90
2023-05-11T12:31:38.403Z,7.90
2023-05-11T12:36:39.887Z,7.20
2023-05-11T12:41:41.274Z,6.97
2023-05-11T12:46:42.701Z,7.47
2023-05-11T12:51:44.148Z,7.47
2023-05-11T12:56:45.554Z,6.13
2023-05-11T13:01:47.048Z,6.40
2023-05-11T13:06:48.478Z,7.30
2023-05-11T13:11:49.893Z,6.13
2023-05-11T13:16:51.296Z,6.13
2023-05-11T13:21:52.707Z,5.00
2023-05-11T13:26:54.088Z,6.50
2023-05-11T13:31:55.507Z,7.47
2023-05-11T13:36:56.972Z,6.07
2023-05-11T13:41:58.366Z,5.60
2023-05-11T13:46:59.815Z,6.40
2023-05-11T13:52:01.245Z,5.67
2023-05-11T13:57:02.644Z,5.13
2023-05-11T14:02:04.310Z,6.07
2023-05-11T14:07:05.936Z,5.80
2023-05-11T14:12:07.342Z,4.87
2023-05-11T14:17:08.829Z,7.00
2023-05-11T14:22:10.280Z,9.50
2023-05-11T14:27:11.693Z,10.07
2023-05-11T14:32:13.091Z,10.23
2023-05-11T14:37:14.505Z,12.23
2023-05-11T14:42:15.929Z,11.83
2023-05-11T14:47:17.404Z,10.37
2023-05-11T14:52:18.808Z,7.50
2023-05-11T14:57:20.200Z,6.77
2023-05-11T15:02:22.514Z,6.80
2023-05-11T15:07:25.338Z,6.23
2023-05-11T15:12:26.773Z,5.40
2023-05-11T15:17:28.209Z,5.53
2023-05-11T15:22:29.635Z,4.67
2023-05-11T15:27:31.065Z,5.30
2023-05-11T15:32:32.566Z,5.20
2023-05-11T15:37:34.024Z,4.83
2023-05-11T15:42:35.420Z,4.97
2023-05-11T15:47:36.851Z,4.17
2023-05-11T15:52:38.269Z,4.73
2023-05-11T15:57:39.660Z,4.00
2023-05-11T16:02:41.182Z,4.83
2023-05-11T16:07:42.617Z,4.30
2023-05-11T16:12:44.038Z,3.87
2023-05-11T16:17:45.453Z,4.23
2023-05-11T16:22:46.866Z,3.90
2023-05-11T16:27:48.281Z,3.50
2023-05-11T16:32:49.793Z,3.80
2023-05-11T16:37:51.223Z,3.93
2023-05-11T16:42:52.642Z,4.30
2023-05-11T16:47:54.078Z,3.97
2023-05-11T16:52:55.579Z,5.17
2023-05-11T16:57:57.007Z,4.30
2023-05-11T17:02:58.502Z,4.47
2023-05-11T17:07:59.997Z,3.73
2023-05-11T17:13:01.420Z,4.10
2023-05-11T17:18:02.872Z,3.90
2023-05-11T17:23:04.334Z,4.77
2023-05-11T17:28:05.741Z,3.43
2023-05-11T17:33:07.397Z,3.40
2023-05-11T17:38:08.980Z,4.27
2023-05-11T17:43:10.396Z,3.90
2023-05-11T17:48:11.855Z,3.90
2023-05-11T17:53:13.289Z,4.13
2023-05-11T17:58:14.690Z,3.97
2023-05-11T18:03:16.227Z,3.43
2023-05-11T18:08:17.724Z,3.23
2023-05-11T18:13:19.140Z,3.90
2023-05-11T18:18:20.550Z,3.30
2023-05-11T18:23:21.989Z,3.60
2023-05-11T18:28:23.421Z,3.70
2023-05-11T18:33:24.933Z,4.10
2023-05-11T18:38:26.362Z,3.47
2023-05-11T18:43:27.760Z,3.70
2023-05-11T18:48:29.181Z,3.83
2023-05-11T18:53:30.641Z,3.53
2023-05-11T18:58:32.044Z,3.47
2023-05-11T19:03:33.468Z,3.23
2023-05-11T19:08:34.881Z,3.80
2023-05-11T19:13:36.285Z,3.50
2023-05-11T19:18:37.708Z,3.30
2023-05-11T19:23:39.132Z,3.33
2023-05-11T19:28:40.532Z,3.30
2023-05-11T19:33:42.081Z,3.83
2023-05-11T19:38:43.499Z,3.20
2023-05-11T19:43:44.915Z,3.30
2023-05-11T19:48:46.313Z,3.50
2023-05-11T19:53:47.847Z,3.97
2023-05-11T19:58:49.251Z,3.20
2023-05-11T20:03:50.705Z,3.70
2023-05-11T20:08:52.209Z,4.17
2023-05-11T20:13:53.698Z,3.17
2023-05-11T20:18:55.246Z,3.07
2023-05-11T20:23:56.677Z,3.37
2023-05-11T20:28:58.091Z,3.20
2023-05-11T20:39:03.948Z,2.73
2023-05-11T20:44:05.471Z,3.20
2023-05-11T20:49:06.872Z,3.13
2023-05-11T20:54:08.295Z,3.30
2023-05-11T21:00:03.727Z,3.40
2023-05-11T21:04:31.093Z,3.10
2023-05-11T21:09:32.528Z,3.60
2023-05-11T21:14:34.018Z,3.87
2023-05-11T21:19:35.486Z,2.93
2023-05-11T21:24:36.877Z,3.40
2023-05-11T21:29:38.288Z,3.20
2023-05-11T21:34:39.705Z,3.00
2023-05-11T21:39:41.118Z,2.77
2023-05-11T21:44:42.508Z,4.60
2023-05-11T21:49:43.910Z,2.80
2023-05-11T21:54:45.337Z,3.33
2023-05-11T21:59:46.751Z,3.17
2023-05-11T22:04:48.187Z,3.23
2023-05-11T22:09:49.592Z,3.20
2023-05-11T22:14:51.009Z,3.20
2023-05-11T22:19:52.435Z,2.90
2023-05-11T22:24:53.853Z,3.20
2023-05-11T22:29:55.269Z,3.27
2023-05-11T22:34:56.743Z,3.00
2023-05-11T22:39:58.176Z,2.90
2023-05-11T22:44:59.577Z,3.63
2023-05-11T22:50:01.004Z,4.10
2023-05-11T22:55:02.630Z,3.00
2023-05-11T23:00:04.086Z,3.40
2023-05-11T23:05:05.486Z,2.93
2023-05-11T23:10:06.916Z,3.60
2023-05-11T23:15:08.324Z,3.70
2023-05-11T23:20:09.736Z,3.40
2023-05-11T23:25:11.147Z,3.73
2023-05-11T23:30:12.552Z,3.60
2023-05-11T23:35:13.954Z,2.87
2023-05-11T23:40:15.372Z,3.40
2023-05-11T23:45:16.777Z,3.17
2023-05-11T23:50:18.341Z,2.97
2023-05-11T23:55:19.925Z,3.47
